Time;durP1;ratioP1;P1;durP2;ratioP2;P2;SDS_P1;SDS_P2;PMS_P1;PMS_P2;Temp;Humidity;BMP_temperature;BMP_pressure;BME280_temperature;BME280_humidity;BME280_pressure;Samples;Min_cycle;Max_cycle;Signal;HPM_P1;HPM_P2
2023/10/15 00:00:50;;;;;;;5.00;2.37;;;21.30;99.40;;;;;;5012333;28;20463;-63
2023/10/15 00:03:17;;;;;;;5.50;2.73;;;21.30;99.20;;;;;;5013159;28;20505;-62
2023/10/15 00:05:44;;;;;;;3.80;2.07;;;21.30;99.20;;;;;;5014543;28;20664;-62
2023/10/15 00:08:11;;;;;;;4.83;2.00;;;21.30;99.10;;;;;;5014681;28;20620;-62
2023/10/15 00:10:38;;;;;;;5.47;2.27;;;21.30;99.00;;;;;;5014698;28;22686;-62
2023/10/15 00:13:05;;;;;;;5.43;2.47;;;21.30;99.10;;;;;;5015304;28;20471;-62
2023/10/15 00:15:33;;;;;;;3.80;2.17;;;21.30;99.00;;;;;;5015432;28;20504;-62
2023/10/15 00:18:01;;;;;;;4.83;2.77;;;21.30;99.00;;;;;;5017358;28;20465;-63
2023/10/15 00:20:31;;;;;;;6.40;2.20;;;21.30;99.00;;;;;;5013985;28;20854;-62
2023/10/15 00:23:04;;;;;;;4.87;2.60;;;21.30;99.00;;;;;;5015189;28;20495;-62
2023/10/15 00:25:34;;;;;;;3.93;2.30;;;21.30;99.10;;;;;;5013812;28;22648;-62
2023/10/15 00:28:01;;;;;;;4.27;2.10;;;21.30;99.00;;;;;;5014187;28;20458;-62
2023/10/15 00:30:32;;;;;;;5.80;3.40;;;21.30;99.20;;;;;;5013955;28;20460;-63
2023/10/15 00:33:03;;;;;;;5.33;2.03;;;21.30;99.00;;;;;;5014887;28;20736;-60
2023/10/15 00:35:33;;;;;;;3.10;1.73;;;21.30;99.10;;;;;;5009118;28;21157;-63
2023/10/15 00:38:07;;;;;;;3.63;2.20;;;21.30;99.10;;;;;;5014393;28;20663;-61
2023/10/15 00:40:37;;;;;;;3.67;2.33;;;21.30;99.10;;;;;;5011679;28;20468;-61
2023/10/15 00:43:04;;;;;;;3.73;1.90;;;21.30;99.10;;;;;;5013997;28;20479;-62
2023/10/15 00:45:35;;;;;;;2.83;1.53;;;21.30;99.10;;;;;;5013358;28;20462;-62
2023/10/15 00:48:07;;;;;;;2.70;2.17;;;21.30;99.10;;;;;;5015544;28;20468;-61
2023/10/15 00:50:38;;;;;;;3.40;1.93;;;21.30;99.10;;;;;;5014580;28;20481;-61
2023/10/15 00:53:20;;;;;;;4.67;2.30;;;21.30;99.10;;;;;;5014027;28;20467;-61
2023/10/15 00:55:49;;;;;;;5.43;2.30;;;21.30;99.10;;;;;;5014626;28;20480;-61
2023/10/15 00:58:21;;;;;;;4.10;2.60;;;21.30;99.10;;;;;;5014980;28;20457;-60
2023/10/15 01:00:52;;;;;;;5.40;2.00;;;21.30;99.10;;;;;;5010825;28;20465;-61
2023/10/15 01:03:30;;;;;;;3.33;2.40;;;21.20;99.10;;;;;;5032732;22;20492;-57
2023/10/15 01:06:04;;;;;;;5.17;2.43;;;21.20;99.40;;;;;;5011580;28;20463;-57
2023/10/15 01:08:35;;;;;;;5.27;2.23;;;21.20;99.10;;;;;;5017945;28;20651;-57
2023/10/15 01:11:09;;;;;;;3.80;2.47;;;21.20;99.10;;;;;;5014315;28;20956;-58
2023/10/15 01:13:37;;;;;;;4.43;2.00;;;21.20;99.10;;;;;;5016353;28;20492;-59
2023/10/15 01:16:05;;;;;;;2.70;1.70;;;21.20;99.10;;;;;;5014791;28;20453;-57
2023/10/15 01:18:33;;;;;;;2.97;2.07;;;21.20;99.10;;;;;;5016392;28;20806;-57
2023/10/15 01:21:04;;;;;;;3.10;1.50;;;21.20;99.10;;;;;;5014074;28;20810;-60
2023/10/15 01:23:32;;;;;;;2.83;1.80;;;21.20;99.10;;;;;;5016921;28;20484;-58
2023/10/15 01:26:00;;;;;;;3.73;2.00;;;21.20;99.10;;;;;;5015186;28;20458;-57
2023/10/15 01:28:36;;;;;;;3.60;1.80;;;21.20;99.10;;;;;;5016472;28;20461;-58
2023/10/15 01:31:05;;;;;;;4.33;2.57;;;21.20;99.10;;;;;;5011880;28;20521;-57
2023/10/15 01:33:32;;;;;;;3.20;2.17;;;21.20;99.10;;;;;;5014603;28;20469;-58
2023/10/15 01:36:06;;;;;;;4.70;2.17;;;21.20;99.10;;;;;;5011735;28;20457;-59
2023/10/15 01:38:34;;;;;;;4.90;2.53;;;21.20;99.10;;;;;;5011980;28;20497;-57
2023/10/15 01:41:04;;;;;;;3.23;1.80;;;21.20;99.10;;;;;;5014622;28;20478;-59
2023/10/15 01:43:32;;;;;;;3.40;2.10;;;21.20;99.10;;;;;;5017966;28;21139;-56
2023/10/15 01:46:06;;;;;;;3.97;2.03;;;21.20;99.10;;;;;;5017486;28;21791;-57
2023/10/15 01:48:38;;;;;;;2.40;1.73;;;21.20;99.10;;;;;;5019475;28;21067;-59
2023/10/15 01:51:06;;;;;;;3.03;2.03;;;21.20;99.10;;;;;;5012584;28;20592;-56
2023/10/15 01:53:36;;;;;;;5.00;2.67;;;21.20;99.10;;;;;;5014999;28;20556;-58
2023/10/15 01:56:04;;;;;;;2.77;2.07;;;21.20;99.10;;;;;;5014046;28;20873;-58
2023/10/15 01:58:32;;;;;;;3.33;2.17;;;21.20;99.20;;;;;;5013875;28;20966;-56
2023/10/15 02:01:08;;;;;;;3.90;2.30;;;21.20;99.10;;;;;;5010961;28;20457;-57
2023/10/15 02:03:37;;;;;;;3.53;1.77;;;21.20;99.10;;;;;;5015460;28;20485;-55
2023/10/15 02:06:07;;;;;;;4.90;2.10;;;21.20;99.20;;;;;;5012725;28;22730;-59
2023/10/15 02:08:37;;;;;;;4.60;2.03;;;21.20;99.10;;;;;;5012669;28;20468;-57
2023/10/15 02:11:15;;;;;;;3.40;2.00;;;21.20;99.10;;;;;;5014867;28;20946;-59
2023/10/15 02:13:44;;;;;;;3.60;2.10;;;21.20;99.10;;;;;;5014146;28;20945;-58
2023/10/15 02:16:15;;;;;;;3.40;1.90;;;21.20;99.10;;;;;;5010404;28;21082;-59
2023/10/15 02:18:44;;;;;;;3.33;2.03;;;21.20;99.10;;;;;;5016063;28;20971;-58
2023/10/15 02:21:11;;;;;;;2.93;1.90;;;21.10;99.10;;;;;;5015613;28;20971;-58
2023/10/15 02:23:48;;;;;;;2.85;1.80;;;21.10;99.10;;;;;;5018489;28;20481;-56
2023/10/15 02:26:18;;;;;;;4.07;2.20;;;21.20;99.10;;;;;;5013657;28;20187;-58
2023/10/15 02:28:46;;;;;;;4.23;2.10;;;21.10;99.10;;;;;;5017723;28;20470;-58
2023/10/15 02:31:19;;;;;;;3.93;2.57;;;21.10;99.10;;;;;;5007485;28;20465;-56
2023/10/15 02:33:46;;;;;;;2.43;1.53;;;21.10;99.10;;;;;;5014275;28;20451;-58
2023/10/15 02:36:16;;;;;;;3.33;2.33;;;21.10;99.10;;;;;;5015660;28;20466;-59
2023/10/15 02:38:52;;;;;;;3.90;2.47;;;21.10;99.10;;;;;;5014958;28;20504;-59
2023/10/15 02:41:20;;;;;;;2.70;1.67;;;21.10;99.10;;;;;;5015605;28;20493;-57
2023/10/15 02:43:48;;;;;;;4.37;2.13;;;21.10;99.10;;;;;;5020832;28;21008;-58
2023/10/15 02:46:22;;;;;;;4.35;2.08;;;21.10;99.10;;;;;;5014830;28;20462;-57
2023/10/15 02:48:49;;;;;;;2.13;1.80;;;21.10;99.10;;;;;;5015644;28;20201;-56
2023/10/15 02:51:23;;;;;;;2.73;1.67;;;21.10;99.10;;;;;;5017065;28;20841;-58
2023/10/15 02:53:52;;;;;;;2.37;1.60;;;21.10;99.10;;;;;;5016790;28;20500;-58
2023/10/15 02:56:21;;;;;;;3.23;1.80;;;21.10;99.10;;;;;;5016248;28;20481;-58
2023/10/15 02:58:49;;;;;;;2.90;1.80;;;21.10;99.10;;;;;;5016328;28;21041;-59
2023/10/15 03:01:19;;;;;;;3.30;2.13;;;21.10;99.10;;;;;;5013330;28;20457;-57
2023/10/15 03:03:49;;;;;;;4.30;1.70;;;21.10;99.10;;;;;;5016359;28;20498;-59
2023/10/15 03:06:24;;;;;;;2.60;1.53;;;21.10;99.10;;;;;;5016652;28;20446;-58
2023/10/15 03:08:52;;;;;;;3.60;2.20;;;21.10;99.10;;;;;;5018657;28;20464;-56
2023/10/15 03:11:21;;;;;;;4.03;1.90;;;21.10;99.10;;;;;;5018241;28;20462;-57
2023/10/15 03:13:52;;;;;;;2.53;1.97;;;21.10;99.10;;;;;;5018034;28;21008;-58
2023/10/15 03:16:20;;;;;;;3.97;2.03;;;21.10;99.50;;;;;;5010671;28;20458;-58
2023/10/15 03:18:48;;;;;;;3.25;2.15;;;21.10;99.10;;;;;;5017047;28;20461;-57
2023/10/15 03:21:20;;;;;;;2.50;1.80;;;21.10;99.10;;;;;;5017358;28;20210;-58
2023/10/15 03:23:49;;;;;;;2.97;1.40;;;21.10;99.10;;;;;;5017145;28;20502;-57
2023/10/15 03:26:18;;;;;;;2.70;1.70;;;21.10;99.10;;;;;;5015874;28;20874;-59
2023/10/15 03:28:51;;;;;;;2.47;1.60;;;21.10;99.10;;;;;;5018881;28;20459;-58
2023/10/15 03:31:20;;;;;;;3.77;2.00;;;21.10;99.10;;;;;;5014300;28;20916;-59
2023/10/15 03:36:43;;;;;;;4.63;2.00;;;21.10;99.10;;;;;;5015927;28;20497;-59
2023/10/15 03:39:15;;;;;;;2.80;1.77;;;21.10;99.10;;;;;;5018213;28;20470;-58
2023/10/15 03:41:42;;;;;;;2.70;1.38;;;21.10;99.10;;;;;;5016650;28;20512;-59
2023/10/15 03:44:11;;;;;;;2.60;1.73;;;21.10;99.10;;;;;;5018525;28;20236;-57
2023/10/15 03:46:38;;;;;;;2.77;1.50;;;21.10;99.40;;;;;;5016187;28;20462;-54
2023/10/15 03:49:07;;;;;;;3.40;2.30;;;21.00;99.00;;;;;;5016893;28;20455;-57
2023/10/15 03:51:40;;;;;;;2.23;1.73;;;21.10;99.10;;;;;;5015794;28;20587;-58
2023/10/15 03:54:08;;;;;;;4.37;1.90;;;21.00;99.00;;;;;;5012624;28;20548;-57
2023/10/15 03:56:35;;;;;;;2.23;1.47;;;21.00;99.00;;;;;;5017904;28;21158;-59
2023/10/15 03:59:02;;;;;;;3.10;1.73;;;21.10;99.10;;;;;;5018356;28;20822;-57
2023/10/15 04:01:31;;;;;;;3.23;1.87;;;21.00;99.00;;;;;;5013198;28;20463;-59
2023/10/15 04:04:01;;;;;;;3.22;1.80;;;21.00;99.00;;;;;;5017684;28;20474;-58
2023/10/15 04:06:27;;;;;;;2.67;1.67;;;21.00;99.00;;;;;;5014372;28;20200;-57
2023/10/15 04:09:09;;;;;;;3.70;1.60;;;21.00;99.00;;;;;;5017241;28;20453;-58
2023/10/15 04:11:42;;;;;;;3.00;1.83;;;21.00;99.00;;;;;;5013277;28;20306;-60
2023/10/15 04:14:13;;;;;;;3.60;2.00;;;21.00;99.00;;;;;;5016882;28;20462;-58
2023/10/15 04:16:42;;;;;;;2.40;1.53;;;21.00;99.00;;;;;;5017519;28;20726;-59
2023/10/15 04:19:09;;;;;;;1.85;1.42;;;21.00;99.00;;;;;;5017000;28;20934;-59
2023/10/15 04:21:38;;;;;;;2.87;1.90;;;21.00;98.90;;;;;;5018268;28;20187;-57
2023/10/15 04:24:06;;;;;;;1.90;1.40;;;21.00;98.90;;;;;;5015232;28;20478;-59
2023/10/15 04:26:35;;;;;;;1.97;1.63;;;21.00;98.90;;;;;;5018297;28;21103;-58
2023/10/15 04:29:16;;;;;;;3.63;1.67;;;21.00;98.90;;;;;;5017285;28;20472;-58
2023/10/15 04:31:47;;;;;;;2.20;1.40;;;21.00;98.90;;;;;;5016727;28;21554;-56
2023/10/15 04:34:18;;;;;;;1.93;1.47;;;21.00;98.90;;;;;;5018521;28;20724;-59
2023/10/15 04:36:45;;;;;;;2.42;1.38;;;21.00;98.90;;;;;;5015613;28;20909;-59
2023/10/15 04:39:13;;;;;;;2.43;1.40;;;21.00;98.90;;;;;;5015915;28;20663;-58
2023/10/15 04:41:40;;;;;;;2.57;1.43;;;21.00;98.90;;;;;;5017314;28;20511;-59
2023/10/15 04:44:11;;;;;;;1.90;1.70;;;21.00;98.90;;;;;;5016648;28;21105;-56
2023/10/15 04:46:42;;;;;;;2.65;1.63;;;21.00;99.20;;;;;;5016817;28;20195;-56
2023/10/15 04:49:15;;;;;;;2.17;1.35;;;21.00;98.90;;;;;;5018999;28;20782;-58
2023/10/15 04:51:43;;;;;;;2.25;1.60;;;21.00;98.90;;;;;;5017516;28;20694;-59
2023/10/15 04:54:10;;;;;;;2.55;1.45;;;21.00;98.80;;;;;;5018792;28;20200;-57
2023/10/15 04:56:37;;;;;;;1.83;1.27;;;21.00;98.90;;;;;;5015950;28;20316;-59
2023/10/15 04:59:04;;;;;;;3.03;1.80;;;21.00;98.80;;;;;;5015984;28;20254;-58
2023/10/15 05:01:33;;;;;;;1.90;1.20;;;21.00;98.90;;;;;;5013046;28;20553;-57
2023/10/15 05:04:01;;;;;;;3.30;1.80;;;21.00;98.90;;;;;;5014630;28;20710;-58
2023/10/15 05:06:29;;;;;;;1.92;1.48;;;21.00;98.90;;;;;;5012250;28;20567;-59
2023/10/15 05:08:55;;;;;;;2.00;1.52;;;21.00;98.80;;;;;;5017099;28;20604;-58
2023/10/15 05:11:23;;;;;;;5.00;1.90;;;21.00;98.90;;;;;;5014497;28;20241;-56
2023/10/15 05:13:49;;;;;;;2.40;1.43;;;21.00;98.80;;;;;;5018015;28;20958;-58
2023/10/15 05:16:16;;;;;;;2.10;1.40;;;21.00;98.80;;;;;;5014151;28;20464;-57
2023/10/15 05:18:44;;;;;;;2.13;1.47;;;21.00;98.80;;;;;;5015904;28;20606;-58
2023/10/15 05:21:13;;;;;;;3.57;1.77;;;21.00;98.80;;;;;;5006866;28;21157;-57
2023/10/15 05:23:41;;;;;;;3.30;1.70;;;21.00;98.80;;;;;;5016428;28;20596;-57
2023/10/15 05:26:07;;;;;;;2.60;1.67;;;21.00;98.90;;;;;;5016936;28;21020;-59
2023/10/15 05:28:34;;;;;;;2.40;1.43;;;21.00;98.80;;;;;;5014017;28;20480;-58
2023/10/15 05:31:01;;;;;;;2.45;1.27;;;21.00;98.80;;;;;;5016222;28;20459;-59
2023/10/15 05:33:28;;;;;;;2.20;1.67;;;21.00;98.80;;;;;;5015790;28;20207;-57
2023/10/15 05:35:56;;;;;;;2.20;1.30;;;20.90;98.80;;;;;;5016625;28;20462;-58
2023/10/15 05:38:25;;;;;;;2.40;1.65;;;20.90;98.80;;;;;;5016757;28;20471;-57
2023/10/15 05:40:58;;;;;;;2.83;1.70;;;20.90;99.10;;;;;;5015781;28;20187;-58
2023/10/15 05:43:25;;;;;;;2.87;1.30;;;20.90;98.80;;;;;;5013678;28;20595;-56
2023/10/15 05:45:52;;;;;;;3.63;1.43;;;20.90;98.80;;;;;;5013323;28;21290;-61
2023/10/15 05:48:18;;;;;;;2.00;1.30;;;20.90;98.90;;;;;;5015334;28;20462;-58
2023/10/15 05:50:48;;;;;;;2.17;1.30;;;21.00;99.00;;;;;;5012820;28;20221;-57
2023/10/15 05:53:16;;;;;;;6.20;1.70;;;21.00;99.10;;;;;;5013841;28;21130;-57
2023/10/15 05:55:42;;;;;;;3.80;1.58;;;20.90;99.00;;;;;;5016932;28;20488;-57
2023/10/15 05:58:10;;;;;;;3.50;2.30;;;20.90;99.00;;;;;;5014272;28;20208;-56
2023/10/15 06:00:39;;;;;;;2.37;1.53;;;20.90;98.90;;;;;;5012330;28;22144;-60
2023/10/15 06:03:06;;;;;;;2.50;1.60;;;20.90;98.90;;;;;;5016544;28;21640;-58
2023/10/15 06:05:33;;;;;;;3.88;1.40;;;20.90;98.90;;;;;;5011808;28;20690;-59
2023/10/15 06:08:00;;;;;;;5.05;1.55;;;20.90;99.00;;;;;;5013237;28;20207;-60
2023/10/15 06:10:29;;;;;;;1.90;1.33;;;20.90;99.00;;;;;;5015348;28;20211;-58
2023/10/15 06:12:57;;;;;;;2.22;1.42;;;20.90;98.90;;;;;;5017168;28;20466;-57
2023/10/15 06:15:26;;;;;;;3.03;1.75;;;20.90;98.90;;;;;;5016065;28;20558;-57
2023/10/15 06:17:52;;;;;;;1.87;1.50;;;20.90;98.90;;;;;;5019148;28;20326;-55
2023/10/15 06:20:20;;;;;;;2.93;1.40;;;20.90;98.90;;;;;;5017915;28;20465;-59
2023/10/15 06:22:49;;;;;;;2.67;1.65;;;20.90;98.90;;;;;;5018088;28;20587;-56
2023/10/15 06:25:17;;;;;;;3.45;1.83;;;20.90;98.90;;;;;;5019803;28;20226;-59
2023/10/15 06:27:44;;;;;;;1.30;1.10;;;20.90;98.90;;;;;;5019728;28;20208;-56
2023/10/15 06:30:16;;;;;;;1.92;1.30;;;20.90;98.90;;;;;;5019705;28;20450;-54
2023/10/15 06:32:47;;;;;;;2.80;1.60;;;20.90;98.90;;;;;;5019504;28;20722;-58
2023/10/15 06:35:18;;;;;;;1.85;1.48;;;20.80;98.90;;;;;;5015748;28;20200;-59
2023/10/15 06:37:45;;;;;;;2.50;1.67;;;20.80;98.80;;;;;;5018958;28;20660;-55
2023/10/15 06:40:13;;;;;;;3.30;1.60;;;20.80;98.80;;;;;;5019097;28;20211;-59
2023/10/15 06:42:40;;;;;;;1.90;1.30;;;20.80;98.80;;;;;;5019057;28;20454;-57
2023/10/15 06:45:08;;;;;;;3.28;1.73;;;20.80;98.80;;;;;;5017836;28;20492;-59
2023/10/15 06:47:35;;;;;;;1.60;1.40;;;20.80;98.80;;;;;;5015579;28;20210;-54
2023/10/15 06:50:07;;;;;;;1.65;1.17;;;20.80;98.80;;;;;;5016922;28;20454;-56
2023/10/15 06:52:37;;;;;;;2.10;1.90;;;20.80;98.90;;;;;;5017962;28;20188;-54
2023/10/15 06:55:04;;;;;;;2.75;1.10;;;20.80;98.90;;;;;;5015748;28;20289;-56
2023/10/15 06:57:31;;;;;;;2.25;1.20;;;20.80;98.80;;;;;;5017765;28;20285;-57
2023/10/15 06:59:58;;;;;;;1.75;1.45;;;20.80;98.80;;;;;;5018502;28;20202;-58
2023/10/15 07:02:28;;;;;;;2.50;1.45;;;20.90;98.90;;;;;;5014958;28;20200;-53
2023/10/15 07:04:56;;;;;;;1.80;1.30;;;20.80;98.90;;;;;;5017127;28;20227;-54
2023/10/15 07:07:24;;;;;;;3.60;1.37;;;20.80;98.80;;;;;;5018867;28;20458;-56
2023/10/15 07:09:52;;;;;;;1.67;1.30;;;20.80;98.80;;;;;;5018336;28;21063;-56
2023/10/15 07:12:18;;;;;;;1.80;1.35;;;20.80;98.80;;;;;;5018575;28;20199;-60
2023/10/15 07:14:45;;;;;;;1.33;1.05;;;20.80;98.80;;;;;;5019281;28;20204;-58
2023/10/15 07:17:12;;;;;;;3.27;1.73;;;20.80;98.80;;;;;;5019008;28;20281;-57
2023/10/15 07:19:38;;;;;;;2.27;1.30;;;20.80;98.80;;;;;;5018466;28;21002;-58
2023/10/15 07:22:05;;;;;;;2.80;2.08;;;20.80;98.80;;;;;;5019694;28;20470;-58
2023/10/15 07:24:33;;;;;;;2.10;1.45;;;20.80;98.80;;;;;;5017732;28;20228;-59
2023/10/15 07:27:01;;;;;;;1.97;1.20;;;20.80;98.80;;;;;;5017766;28;20645;-58
2023/10/15 07:29:28;;;;;;;3.25;1.60;;;20.90;98.90;;;;;;5016839;28;20858;-58
2023/10/15 07:31:55;;;;;;;2.05;1.40;;;20.80;98.90;;;;;;5017885;28;20199;-57
2023/10/15 07:34:22;;;;;;;2.95;1.98;;;20.80;98.90;;;;;;5016460;28;20195;-58
2023/10/15 07:36:50;;;;;;;2.05;1.50;;;20.80;98.90;;;;;;5017753;28;20263;-54
2023/10/15 07:39:17;;;;;;;1.40;1.20;;;20.80;98.90;;;;;;5021345;28;20315;-58
2023/10/15 07:41:46;;;;;;;3.05;1.65;;;20.80;98.90;;;;;;5020873;28;21119;-59
2023/10/15 07:44:14;;;;;;;1.83;1.20;;;20.80;98.90;;;;;;5017517;28;20204;-59
2023/10/15 07:46:42;;;;;;;2.17;1.20;;;20.80;98.90;;;;;;5020902;28;20314;-58
2023/10/15 07:49:09;;;;;;;2.13;1.45;;;20.80;98.90;;;;;;5018007;28;20203;-55
2023/10/15 07:51:37;;;;;;;2.10;1.23;;;20.80;98.90;;;;;;5018964;28;20357;-59
2023/10/15 07:54:04;;;;;;;1.67;1.30;;;20.80;98.90;;;;;;5018773;28;20469;-59
2023/10/15 07:56:34;;;;;;;1.80;1.13;;;20.80;99.30;;;;;;5016641;28;20209;-54
2023/10/15 07:59:05;;;;;;;2.27;1.50;;;20.80;99.00;;;;;;5018238;28;20191;-55
2023/10/15 08:01:32;;;;;;;2.05;1.45;;;20.80;99.00;;;;;;5012896;28;20471;-59
2023/10/15 08:03:59;;;;;;;1.90;1.40;;;20.80;99.00;;;;;;5016246;28;20215;-57
2023/10/15 08:06:25;;;;;;;1.90;1.15;;;20.80;99.00;;;;;;5014036;28;21399;-56
2023/10/15 08:08:52;;;;;;;2.85;1.85;;;20.80;99.00;;;;;;5017902;28;20211;-59
2023/10/15 08:11:19;;;;;;;2.78;1.08;;;20.80;99.00;;;;;;5017965;28;20204;-57
2023/10/15 08:13:46;;;;;;;2.67;1.40;;;20.80;99.00;;;;;;5018759;28;20200;-59
2023/10/15 08:16:15;;;;;;;2.33;1.42;;;20.80;99.10;;;;;;5014883;28;20196;-59
2023/10/15 08:18:42;;;;;;;1.77;1.37;;;20.80;99.20;;;;;;5019599;28;20199;-59
2023/10/15 08:21:11;;;;;;;7.18;1.50;;;20.80;99.20;;;;;;5017264;28;20464;-60
2023/10/15 08:23:38;;;;;;;2.47;1.85;;;20.80;99.40;;;;;;5017107;28;20203;-58
2023/10/15 08:26:05;;;;;;;3.97;1.20;;;20.90;99.40;;;;;;5015613;28;20233;-59
2023/10/15 08:28:32;;;;;;;2.73;1.43;;;20.80;99.30;;;;;;5014078;28;20498;-58
2023/10/15 08:30:59;;;;;;;1.77;1.10;;;20.80;99.50;;;;;;5016003;28;21013;-57
2023/10/15 08:33:27;;;;;;;2.00;1.38;;;20.80;99.60;;;;;;5016443;28;20548;-59
2023/10/15 08:35:53;;;;;;;1.20;1.10;;;20.80;99.50;;;;;;5015855;28;20203;-60
2023/10/15 08:38:20;;;;;;;1.50;1.30;;;20.90;99.50;;;;;;5016130;28;20819;-59
2023/10/15 08:40:49;;;;;;;1.70;1.17;;;20.90;99.70;;;;;;5016268;28;20458;-57
2023/10/15 08:43:22;;;;;;;1.70;1.20;;;20.80;99.60;;;;;;5015590;28;20505;-57
2023/10/15 08:45:51;;;;;;;1.47;1.20;;;20.90;99.70;;;;;;5016733;28;20218;-58
2023/10/15 08:48:19;;;;;;;1.30;1.00;;;20.90;99.80;;;;;;5018389;28;20970;-59
2023/10/15 08:50:48;;;;;;;1.90;1.10;;;21.00;99.80;;;;;;5015103;28;21180;-58
2023/10/15 08:53:17;;;;;;;2.63;1.00;;;21.00;99.80;;;;;;5014712;28;21334;-58
2023/10/15 08:55:45;;;;;;;3.13;1.60;;;21.00;99.90;;;;;;5012748;28;20561;-60
2023/10/15 08:58:12;;;;;;;2.67;1.30;;;21.00;99.90;;;;;;5012510;28;20457;-58
2023/10/15 09:00:40;;;;;;;1.67;1.30;;;21.00;99.90;;;;;;5010957;28;20458;-58
2023/10/15 09:03:07;;;;;;;1.80;1.13;;;21.10;99.90;;;;;;5015342;28;20495;-59
2023/10/15 09:05:37;;;;;;;1.50;1.00;;;21.10;99.90;;;;;;5013777;28;20489;-60
2023/10/15 09:08:07;;;;;;;2.70;1.40;;;21.10;99.90;;;;;;5015399;28;20754;-57
2023/10/15 09:10:36;;;;;;;1.70;1.10;;;21.10;99.90;;;;;;5013801;28;20469;-58
2023/10/15 09:13:04;;;;;;;2.33;1.23;;;21.10;99.90;;;;;;5012577;28;20472;-55
2023/10/15 09:15:31;;;;;;;2.33;1.47;;;21.20;99.90;;;;;;5015372;28;20469;-58
2023/10/15 09:17:59;;;;;;;2.03;1.47;;;21.20;99.90;;;;;;5016020;28;20935;-60
2023/10/15 09:20:33;;;;;;;3.30;1.07;;;21.20;99.90;;;;;;5015195;28;20461;-60
2023/10/15 09:23:01;;;;;;;1.63;1.00;;;21.20;99.90;;;;;;5017588;28;20557;-59
2023/10/15 09:25:29;;;;;;;1.20;1.00;;;21.20;99.90;;;;;;5015607;28;20529;-58
2023/10/15 09:27:57;;;;;;;1.50;1.10;;;21.30;99.90;;;;;;5016132;28;20633;-58
2023/10/15 09:30:24;;;;;;;1.40;1.00;;;21.30;99.90;;;;;;5012850;28;20981;-60
2023/10/15 09:32:52;;;;;;;1.20;1.00;;;21.30;99.90;;;;;;5016057;28;20466;-59
2023/10/15 09:35:19;;;;;;;1.27;1.00;;;21.30;99.90;;;;;;5013957;28;21219;-58
2023/10/15 09:37:46;;;;;;;2.43;0.97;;;21.30;99.90;;;;;;5017514;28;20461;-58
2023/10/15 09:40:19;;;;;;;2.80;1.40;;;21.30;99.90;;;;;;5015353;28;21347;-60
2023/10/15 09:42:49;;;;;;;2.17;1.43;;;21.30;99.80;;;;;;5018877;28;20458;-59
2023/10/15 09:45:19;;;;;;;3.50;1.20;;;21.30;99.80;;;;;;5013511;28;20956;-59
2023/10/15 09:47:49;;;;;;;1.57;1.00;;;21.30;99.80;;;;;;5021344;28;20459;-59
2023/10/15 09:50:19;;;;;;;1.70;1.00;;;21.40;99.80;;;;;;5019438;28;20458;-57
2023/10/15 09:52:55;;;;;;;2.93;1.30;;;21.40;99.80;;;;;;5022456;28;21116;-58
2023/10/15 09:55:24;;;;;;;1.10;0.83;;;21.40;99.80;;;;;;5020393;28;20809;-56
2023/10/15 09:57:55;;;;;;;1.30;0.90;;;21.40;99.80;;;;;;5021080;28;20473;-59
2023/10/15 10:00:32;;;;;;;1.57;1.17;;;21.40;99.70;;;;;;5020336;28;20949;-58
2023/10/15 10:03:13;;;;;;;1.83;1.07;;;21.40;99.70;;;;;;5025194;28;20466;-60
2023/10/15 10:05:49;;;;;;;1.10;1.00;;;21.40;99.70;;;;;;5023135;28;21408;-61
2023/10/15 10:08:27;;;;;;;2.23;1.47;;;21.40;99.70;;;;;;5018624;28;20467;-58
2023/10/15 10:11:15;;;;;;;2.23;1.30;;;21.40;99.60;;;;;;5022322;28;21281;-60
2023/10/15 10:14:24;;;;;;;2.60;1.10;;;21.40;99.60;;;;;;5022647;28;20487;-60
2023/10/15 10:16:52;;;;;;;1.73;1.10;;;21.40;99.60;;;;;;5020884;28;20997;-57
2023/10/15 10:19:20;;;;;;;3.20;1.30;;;21.40;99.60;;;;;;5022475;28;21589;-58
2023/10/15 10:21:48;;;;;;;1.23;1.00;;;21.40;99.60;;;;;;5023258;28;20502;-58
2023/10/15 10:24:17;;;;;;;1.60;1.17;;;21.40;99.60;;;;;;5024759;28;20615;-58
2023/10/15 10:26:52;;;;;;;1.17;1.00;;;21.40;99.70;;;;;;5009653;28;20483;-57
2023/10/15 10:29:25;;;;;;;1.47;1.17;;;21.50;99.80;;;;;;5011951;28;20456;-59
2023/10/15 10:31:54;;;;;;;1.30;0.90;;;21.40;99.70;;;;;;5020738;28;20453;-60
2023/10/15 10:34:30;;;;;;;1.53;1.13;;;21.40;99.70;;;;;;5020447;28;20831;-58
2023/10/15 10:36:57;;;;;;;4.00;1.20;;;21.40;99.80;;;;;;5024187;28;20466;-59
2023/10/15 10:39:25;;;;;;;3.57;1.20;;;21.40;99.60;;;;;;5022976;28;20462;-60
2023/10/15 10:41:54;;;;;;;1.50;0.90;;;21.50;99.60;;;;;;5023367;28;20770;-60
2023/10/15 10:44:41;;;;;;;2.23;1.00;;;21.50;99.70;;;;;;5022494;28;20466;-59
2023/10/15 10:47:19;;;;;;;1.70;1.20;;;21.50;99.80;;;;;;5023067;28;20993;-60
2023/10/15 10:49:55;;;;;;;4.13;1.00;;;21.50;99.80;;;;;;5022344;28;20449;-55
2023/10/15 10:52:29;;;;;;;1.20;0.90;;;21.60;99.70;;;;;;5021896;28;20813;-55
2023/10/15 10:54:57;;;;;;;2.43;1.30;;;21.50;99.70;;;;;;5020401;28;21075;-58
2023/10/15 10:57:31;;;;;;;1.10;0.90;;;21.60;99.50;;;;;;5017889;28;20461;-57
2023/10/15 11:00:01;;;;;;;1.40;1.10;;;21.60;99.40;;;;;;5020488;28;20604;-57
2023/10/15 11:02:29;;;;;;;1.87;1.30;;;21.60;99.40;;;;;;5016516;28;20461;-58
2023/10/15 11:04:59;;;;;;;1.30;1.00;;;21.60;99.50;;;;;;5014748;28;20470;-64
2023/10/15 11:07:36;;;;;;;1.20;0.80;;;21.60;99.30;;;;;;5013584;28;20504;-62
2023/10/15 11:10:06;;;;;;;1.60;1.10;;;21.60;99.40;;;;;;4999878;28;20567;-65
2023/10/15 11:12:33;;;;;;;4.10;1.00;;;21.60;99.60;;;;;;4997191;28;20501;-61
2023/10/15 11:15:07;;;;;;;4.13;0.90;;;21.60;99.60;;;;;;5000645;28;20465;-62
2023/10/15 11:17:34;;;;;;;1.30;1.00;;;21.60;99.80;;;;;;5000869;28;20473;-62
2023/10/15 11:20:01;;;;;;;1.30;1.00;;;21.70;99.90;;;;;;5001230;28;21049;-61
2023/10/15 11:22:28;;;;;;;2.30;1.20;;;21.70;99.90;;;;;;5002875;28;20464;-62
2023/10/15 11:24:55;;;;;;;1.03;0.90;;;21.70;99.90;;;;;;5004279;28;20460;-60
2023/10/15 11:27:22;;;;;;;1.80;0.93;;;21.70;99.90;;;;;;5003258;28;21046;-60
2023/10/15 11:29:50;;;;;;;1.57;1.40;;;21.80;99.90;;;;;;5004487;28;21019;-59
2023/10/15 11:32:18;;;;;;;1.50;0.90;;;21.80;99.90;;;;;;5003637;28;20449;-58
2023/10/15 11:34:45;;;;;;;2.03;1.00;;;21.80;99.90;;;;;;4997030;28;20522;-61
2023/10/15 11:37:16;;;;;;;2.33;1.07;;;21.80;99.90;;;;;;5001399;28;21121;-62
2023/10/15 11:39:47;;;;;;;1.37;1.03;;;21.90;99.90;;;;;;5004187;28;20453;-64
2023/10/15 11:42:15;;;;;;;1.90;1.00;;;21.90;99.90;;;;;;5005608;28;21122;-62
2023/10/15 11:44:43;;;;;;;1.30;0.80;;;21.90;99.90;;;;;;5008864;28;20461;-62
2023/10/15 11:47:15;;;;;;;1.40;1.20;;;21.90;99.80;;;;;;5002879;28;20474;-63
2023/10/15 11:49:43;;;;;;;1.47;0.97;;;21.90;99.60;;;;;;4999447;28;21030;-63
2023/10/15 11:52:14;;;;;;;1.47;0.90;;;22.00;99.60;;;;;;5006910;28;20821;-62
2023/10/15 11:54:43;;;;;;;3.00;1.30;;;22.00;99.50;;;;;;5002763;28;20563;-62
2023/10/15 11:57:16;;;;;;;1.93;0.87;;;22.10;99.40;;;;;;5004535;28;20972;-64
2023/10/15 11:59:43;;;;;;;1.30;0.90;;;22.00;99.30;;;;;;4999980;28;22974;-64
2023/10/15 12:02:11;;;;;;;1.87;1.03;;;22.10;99.10;;;;;;4995658;28;20697;-63
2023/10/15 12:04:38;;;;;;;1.90;1.07;;;22.10;98.90;;;;;;4996027;28;20489;-64
2023/10/15 12:07:15;;;;;;;1.40;1.00;;;22.10;98.80;;;;;;5003609;28;20665;-63
2023/10/15 12:09:44;;;;;;;1.10;0.80;;;22.10;98.70;;;;;;5004219;28;20600;-60
2023/10/15 12:12:11;;;;;;;1.30;0.90;;;22.10;98.40;;;;;;5004988;28;20506;-63
2023/10/15 12:14:38;;;;;;;2.37;1.47;;;22.10;98.30;;;;;;4998719;28;20605;-63
2023/10/15 12:17:05;;;;;;;1.40;0.90;;;22.20;98.10;;;;;;4994435;28;21214;-63
2023/10/15 12:19:32;;;;;;;2.67;1.00;;;22.10;98.00;;;;;;4995488;28;20556;-63
2023/10/15 12:21:59;;;;;;;1.10;0.90;;;22.20;97.90;;;;;;4991096;28;20470;-62
2023/10/15 12:24:27;;;;;;;1.13;0.70;;;22.20;97.80;;;;;;4999174;28;21111;-62
2023/10/15 12:26:54;;;;;;;1.43;0.90;;;22.20;97.60;;;;;;4998321;28;20486;-61
2023/10/15 12:29:28;;;;;;;2.60;0.80;;;22.20;97.50;;;;;;5003696;28;21009;-64
2023/10/15 12:31:55;;;;;;;1.10;0.90;;;22.20;97.40;;;;;;5004338;28;20457;-64
2023/10/15 12:34:22;;;;;;;1.40;1.10;;;22.20;97.30;;;;;;4998611;28;21067;-62
2023/10/15 12:36:50;;;;;;;2.20;0.93;;;22.30;97.10;;;;;;4999793;28;21279;-64
2023/10/15 12:39:17;;;;;;;2.20;1.23;;;22.30;97.10;;;;;;5004559;28;21657;-61
2023/10/15 12:41:45;;;;;;;3.57;1.03;;;22.30;97.00;;;;;;5001943;28;21100;-62
2023/10/15 12:44:11;;;;;;;1.73;0.90;;;22.30;96.80;;;;;;4997731;28;20845;-61
2023/10/15 12:46:40;;;;;;;1.83;0.90;;;22.30;96.80;;;;;;4998573;28;20489;-60
2023/10/15 12:49:08;;;;;;;2.70;1.10;;;22.30;96.70;;;;;;4999503;28;20825;-61
2023/10/15 12:51:35;;;;;;;1.00;0.70;;;22.30;96.60;;;;;;4995030;28;20470;-61
2023/10/15 12:54:03;;;;;;;2.63;0.90;;;22.30;96.50;;;;;;5000801;28;20458;-60
2023/10/15 12:56:30;;;;;;;2.90;0.90;;;22.40;96.40;;;;;;4996171;28;20565;-61
2023/10/15 12:58:59;;;;;;;1.47;0.90;;;22.40;96.30;;;;;;4993482;28;20458;-61
2023/10/15 13:01:26;;;;;;;1.37;0.90;;;22.40;96.20;;;;;;4998836;28;21181;-60